sensor_id;sensor_type;location;lat;lon;timestamp;temperature;humidity
16347;DHT22;8283;48.504;13.734;2024-01-15T00:00:56;1.00;74.80
16347;DHT22;8283;48.504;13.734;2024-01-15T00:03:15;1.00;74.90
16347;DHT22;8283;48.504;13.734;2024-01-15T00:05:35;1.90;75.50
16347;DHT22;8283;48.504;13.734;2024-01-15T00:07:54;1.00;75.00
16347;DHT22;8283;48.504;13.734;2024-01-15T00:10:14;1.10;75.00
16347;DHT22;8283;48.504;13.734;2024-01-15T00:12:33;1.10;75.10
16347;DHT22;8283;48.504;13.734;2024-01-15T00:14:53;1.10;75.00
16347;DHT22;8283;48.504;13.734;2024-01-15T00:17:13;1.10;75.00
16347;DHT22;8283;48.504;13.734;2024-01-15T00:19:32;1.10;74.90
16347;DHT22;8283;48.504;13.734;2024-01-15T00:21:52;1.10;74.80
16347;DHT22;8283;48.504;13.734;2024-01-15T00:24:11;1.10;74.90
16347;DHT22;8283;48.504;13.734;2024-01-15T00:26:31;1.20;74.90
16347;DHT22;8283;48.504;13.734;2024-01-15T00:28:50;1.20;74.90
16347;DHT22;8283;48.504;13.734;2024-01-15T00:31:10;1.20;74.90
16347;DHT22;8283;48.504;13.734;2024-01-15T00:33:29;1.20;74.90
16347;DHT22;8283;48.504;13.734;2024-01-15T00:35:48;1.20;74.90
16347;DHT22;8283;48.504;13.734;2024-01-15T00:38:07;2.50;75.70
16347;DHT22;8283;48.504;13.734;2024-01-15T00:40:27;1.20;75.00
16347;DHT22;8283;48.504;13.734;2024-01-15T00:42:46;1.20;74.90
16347;DHT22;8283;48.504;13.734;2024-01-15T00:45:06;1.20;74.80
16347;DHT22;8283;48.504;13.734;2024-01-15T00:47:27;1.20;74.80
16347;DHT22;8283;48.504;13.734;2024-01-15T00:49:46;1.20;74.80
16347;DHT22;8283;48.504;13.734;2024-01-15T00:52:05;1.20;74.90
16347;DHT22;8283;48.504;13.734;2024-01-15T00:54:25;1.20;74.90
16347;DHT22;8283;48.504;13.734;2024-01-15T00:56:45;2.20;75.60
16347;DHT22;8283;48.504;13.734;2024-01-15T00:59:04;1.20;74.90
16347;DHT22;8283;48.504;13.734;2024-01-15T01:01:23;1.20;74.80
16347;DHT22;8283;48.504;13.734;2024-01-15T01:03:42;1.20;74.70
16347;DHT22;8283;48.504;13.734;2024-01-15T01:06:01;1.10;74.70
16347;DHT22;8283;48.504;13.734;2024-01-15T01:08:21;1.10;74.60
16347;DHT22;8283;48.504;13.734;2024-01-15T01:10:40;1.10;74.50
16347;DHT22;8283;48.504;13.734;2024-01-15T01:13:02;1.10;74.50
16347;DHT22;8283;48.504;13.734;2024-01-15T01:15:21;1.00;74.40
16347;DHT22;8283;48.504;13.734;2024-01-15T01:17:41;1.00;74.40
16347;DHT22;8283;48.504;13.734;2024-01-15T01:20:01;1.00;74.30
16347;DHT22;8283;48.504;13.734;2024-01-15T01:22:23;0.90;74.10
16347;DHT22;8283;48.504;13.734;2024-01-15T01:24:43;0.90;74.10
16347;DHT22;8283;48.504;13.734;2024-01-15T01:27:02;0.80;74.00
16347;DHT22;8283;48.504;13.734;2024-01-15T01:29:22;0.70;73.90
16347;DHT22;8283;48.504;13.734;2024-01-15T01:31:45;0.60;73.80
16347;DHT22;8283;48.504;13.734;2024-01-15T01:34:04;0.60;73.90
16347;DHT22;8283;48.504;13.734;2024-01-15T01:36:23;0.50;73.80
16347;DHT22;8283;48.504;13.734;2024-01-15T01:38:43;0.40;73.80
16347;DHT22;8283;48.504;13.734;2024-01-15T01:41:02;0.40;73.80
16347;DHT22;8283;48.504;13.734;2024-01-15T01:43:21;0.30;73.70
16347;DHT22;8283;48.504;13.734;2024-01-15T01:45:40;0.20;73.70
16347;DHT22;8283;48.504;13.734;2024-01-15T01:48:00;0.20;73.80
16347;DHT22;8283;48.504;13.734;2024-01-15T01:50:20;0.10;73.90
16347;DHT22;8283;48.504;13.734;2024-01-15T01:52:39;0.10;73.90
16347;DHT22;8283;48.504;13.734;2024-01-15T01:55:00;0.00;73.80
16347;DHT22;8283;48.504;13.734;2024-01-15T01:57:21;0.00;73.90
16347;DHT22;8283;48.504;13.734;2024-01-15T01:59:41;-0.10;74.10
16347;DHT22;8283;48.504;13.734;2024-01-15T02:02:01;-0.10;74.10
16347;DHT22;8283;48.504;13.734;2024-01-15T02:04:24;-0.10;74.40
16347;DHT22;8283;48.504;13.734;2024-01-15T02:06:43;-0.20;74.50
16347;DHT22;8283;48.504;13.734;2024-01-15T02:09:03;-0.20;74.60
16347;DHT22;8283;48.504;13.734;2024-01-15T02:11:24;-0.20;74.80
16347;DHT22;8283;48.504;13.734;2024-01-15T02:13:43;-0.20;74.90
16347;DHT22;8283;48.504;13.734;2024-01-15T02:16:03;-0.20;74.90
16347;DHT22;8283;48.504;13.734;2024-01-15T02:18:22;-0.20;75.00
16347;DHT22;8283;48.504;13.734;2024-01-15T02:20:41;-0.20;75.10
16347;DHT22;8283;48.504;13.734;2024-01-15T02:23:11;-0.10;75.30
16347;DHT22;8283;48.504;13.734;2024-01-15T02:25:31;-0.10;75.60
16347;DHT22;8283;48.504;13.734;2024-01-15T02:27:50;-0.10;75.40
16347;DHT22;8283;48.504;13.734;2024-01-15T02:30:11;0.00;75.30
16347;DHT22;8283;48.504;13.734;2024-01-15T02:32:30;0.00;75.60
16347;DHT22;8283;48.504;13.734;2024-01-15T02:34:50;0.00;75.60
16347;DHT22;8283;48.504;13.734;2024-01-15T02:37:09;0.10;75.80
16347;DHT22;8283;48.504;13.734;2024-01-15T02:39:28;0.10;75.80
16347;DHT22;8283;48.504;13.734;2024-01-15T02:41:48;0.20;76.40
16347;DHT22;8283;48.504;13.734;2024-01-15T02:44:07;0.30;76.40
16347;DHT22;8283;48.504;13.734;2024-01-15T02:46:26;0.40;76.40
16347;DHT22;8283;48.504;13.734;2024-01-15T02:48:46;0.50;76.40
16347;DHT22;8283;48.504;13.734;2024-01-15T02:51:05;0.60;76.40
16347;DHT22;8283;48.504;13.734;2024-01-15T02:53:24;0.70;76.40
16347;DHT22;8283;48.504;13.734;2024-01-15T02:55:44;0.80;76.30
16347;DHT22;8283;48.504;13.734;2024-01-15T02:58:04;0.90;76.40
16347;DHT22;8283;48.504;13.734;2024-01-15T03:00:23;1.00;76.30
16347;DHT22;8283;48.504;13.734;2024-01-15T03:02:44;1.00;76.30
16347;DHT22;8283;48.504;13.734;2024-01-15T03:05:04;1.10;76.10
16347;DHT22;8283;48.504;13.734;2024-01-15T03:07:23;1.20;76.00
16347;DHT22;8283;48.504;13.734;2024-01-15T03:09:42;1.20;76.00
16347;DHT22;8283;48.504;13.734;2024-01-15T03:12:02;1.30;76.10
16347;DHT22;8283;48.504;13.734;2024-01-15T03:14:21;1.30;76.00
16347;DHT22;8283;48.504;13.734;2024-01-15T03:16:43;1.40;76.00
16347;DHT22;8283;48.504;13.734;2024-01-15T03:19:03;1.40;75.90
16347;DHT22;8283;48.504;13.734;2024-01-15T03:21:22;1.40;75.80
16347;DHT22;8283;48.504;13.734;2024-01-15T03:23:41;1.50;75.90
16347;DHT22;8283;48.504;13.734;2024-01-15T03:26:01;1.50;75.70
16347;DHT22;8283;48.504;13.734;2024-01-15T03:28:20;1.60;75.80
16347;DHT22;8283;48.504;13.734;2024-01-15T03:30:39;1.60;75.80
16347;DHT22;8283;48.504;13.734;2024-01-15T03:32:59;1.60;75.80
16347;DHT22;8283;48.504;13.734;2024-01-15T03:35:18;1.60;75.70
16347;DHT22;8283;48.504;13.734;2024-01-15T03:37:38;1.60;75.70
16347;DHT22;8283;48.504;13.734;2024-01-15T03:39:57;1.60;75.70
16347;DHT22;8283;48.504;13.734;2024-01-15T03:42:16;1.70;75.60
16347;DHT22;8283;48.504;13.734;2024-01-15T03:44:36;1.70;75.70
16347;DHT22;8283;48.504;13.734;2024-01-15T03:46:55;1.70;75.70
16347;DHT22;8283;48.504;13.734;2024-01-15T03:49:14;1.70;75.70
16347;DHT22;8283;48.504;13.734;2024-01-15T03:51:34;1.70;75.60
16347;DHT22;8283;48.504;13.734;2024-01-15T03:53:53;1.80;75.60
16347;DHT22;8283;48.504;13.734;2024-01-15T03:56:13;1.80;75.60
16347;DHT22;8283;48.504;13.734;2024-01-15T03:58:33;1.80;75.60
16347;DHT22;8283;48.504;13.734;2024-01-15T04:00:52;1.80;75.60
16347;DHT22;8283;48.504;13.734;2024-01-15T04:03:11;1.80;76.30
16347;DHT22;8283;48.504;13.734;2024-01-15T04:05:31;1.80;75.60
16347;DHT22;8283;48.504;13.734;2024-01-15T04:07:50;1.90;75.70
16347;DHT22;8283;48.504;13.734;2024-01-15T04:10:09;1.90;75.60
16347;DHT22;8283;48.504;13.734;2024-01-15T04:12:29;1.90;75.60
16347;DHT22;8283;48.504;13.734;2024-01-15T04:14:48;1.90;75.70
16347;DHT22;8283;48.504;13.734;2024-01-15T04:17:07;1.90;75.70
16347;DHT22;8283;48.504;13.734;2024-01-15T04:19:27;1.90;75.60
16347;DHT22;8283;48.504;13.734;2024-01-15T04:21:46;1.90;75.70
16347;DHT22;8283;48.504;13.734;2024-01-15T04:24:05;2.00;75.60
16347;DHT22;8283;48.504;13.734;2024-01-15T04:26:25;2.00;75.60
16347;DHT22;8283;48.504;13.734;2024-01-15T04:28:44;2.00;75.60
16347;DHT22;8283;48.504;13.734;2024-01-15T04:31:04;2.00;75.60
16347;DHT22;8283;48.504;13.734;2024-01-15T04:33:23;2.00;75.50
16347;DHT22;8283;48.504;13.734;2024-01-15T04:35:42;2.00;75.50
16347;DHT22;8283;48.504;13.734;2024-01-15T04:38:01;2.00;75.60
16347;DHT22;8283;48.504;13.734;2024-01-15T04:40:21;2.00;75.50
16347;DHT22;8283;48.504;13.734;2024-01-15T04:42:40;2.00;75.50
16347;DHT22;8283;48.504;13.734;2024-01-15T04:45:00;2.00;75.40
16347;DHT22;8283;48.504;13.734;2024-01-15T04:47:19;2.00;75.40
16347;DHT22;8283;48.504;13.734;2024-01-15T04:49:38;2.00;75.50
16347;DHT22;8283;48.504;13.734;2024-01-15T04:51:57;2.00;75.40
16347;DHT22;8283;48.504;13.734;2024-01-15T04:54:17;2.00;75.50
16347;DHT22;8283;48.504;13.734;2024-01-15T04:56:37;2.00;75.50
16347;DHT22;8283;48.504;13.734;2024-01-15T04:58:56;2.00;75.60
16347;DHT22;8283;48.504;13.734;2024-01-15T05:01:16;2.00;75.60
16347;DHT22;8283;48.504;13.734;2024-01-15T05:03:36;2.00;75.60
16347;DHT22;8283;48.504;13.734;2024-01-15T05:05:55;2.00;75.50
16347;DHT22;8283;48.504;13.734;2024-01-15T05:08:14;2.10;75.60
16347;DHT22;8283;48.504;13.734;2024-01-15T05:10:34;2.10;75.60
16347;DHT22;8283;48.504;13.734;2024-01-15T05:12:53;2.10;75.50
16347;DHT22;8283;48.504;13.734;2024-01-15T05:15:12;2.10;75.60
16347;DHT22;8283;48.504;13.734;2024-01-15T05:17:33;2.10;75.60
16347;DHT22;8283;48.504;13.734;2024-01-15T05:19:52;2.10;75.50
16347;DHT22;8283;48.504;13.734;2024-01-15T05:22:11;2.10;75.50
16347;DHT22;8283;48.504;13.734;2024-01-15T05:24:30;2.10;75.50
16347;DHT22;8283;48.504;13.734;2024-01-15T05:26:49;2.20;75.60
16347;DHT22;8283;48.504;13.734;2024-01-15T05:29:09;2.20;75.60
16347;DHT22;8283;48.504;13.734;2024-01-15T05:31:29;2.20;75.60
16347;DHT22;8283;48.504;13.734;2024-01-15T05:33:48;2.20;75.60
16347;DHT22;8283;48.504;13.734;2024-01-15T05:36:10;2.20;75.60
16347;DHT22;8283;48.504;13.734;2024-01-15T05:38:29;2.30;75.60
16347;DHT22;8283;48.504;13.734;2024-01-15T05:40:49;2.30;75.60
16347;DHT22;8283;48.504;13.734;2024-01-15T05:43:08;2.30;75.60
16347;DHT22;8283;48.504;13.734;2024-01-15T05:45:29;2.30;75.60
16347;DHT22;8283;48.504;13.734;2024-01-15T05:47:48;2.30;75.60
16347;DHT22;8283;48.504;13.734;2024-01-15T05:50:08;2.40;75.50
16347;DHT22;8283;48.504;13.734;2024-01-15T05:52:28;2.40;75.40
16347;DHT22;8283;48.504;13.734;2024-01-15T05:54:47;2.40;75.80
16347;DHT22;8283;48.504;13.734;2024-01-15T05:57:07;2.40;75.30
16347;DHT22;8283;48.504;13.734;2024-01-15T05:59:26;2.40;75.20
16347;DHT22;8283;48.504;13.734;2024-01-15T06:01:45;2.40;75.30
16347;DHT22;8283;48.504;13.734;2024-01-15T06:04:04;2.40;75.20
16347;DHT22;8283;48.504;13.734;2024-01-15T06:06:24;2.40;75.10
16347;DHT22;8283;48.504;13.734;2024-01-15T06:08:43;2.40;75.10
16347;DHT22;8283;48.504;13.734;2024-01-15T06:11:03;2.50;75.20
16347;DHT22;8283;48.504;13.734;2024-01-15T06:13:22;2.40;75.20
16347;DHT22;8283;48.504;13.734;2024-01-15T06:15:42;2.50;75.30
16347;DHT22;8283;48.504;13.734;2024-01-15T06:18:01;2.50;75.40
16347;DHT22;8283;48.504;13.734;2024-01-15T06:20:20;2.50;75.30
16347;DHT22;8283;48.504;13.734;2024-01-15T06:22:39;2.50;75.40
16347;DHT22;8283;48.504;13.734;2024-01-15T06:24:59;2.50;75.30
16347;DHT22;8283;48.504;13.734;2024-01-15T06:27:18;2.50;75.30
16347;DHT22;8283;48.504;13.734;2024-01-15T06:29:38;2.50;75.30
16347;DHT22;8283;48.504;13.734;2024-01-15T06:31:58;2.50;75.30
16347;DHT22;8283;48.504;13.734;2024-01-15T06:34:18;2.50;75.30
16347;DHT22;8283;48.504;13.734;2024-01-15T06:36:37;2.50;75.20
16347;DHT22;8283;48.504;13.734;2024-01-15T06:38:57;2.50;75.20
16347;DHT22;8283;48.504;13.734;2024-01-15T06:41:16;2.50;75.30
16347;DHT22;8283;48.504;13.734;2024-01-15T06:43:35;2.60;75.30
16347;DHT22;8283;48.504;13.734;2024-01-15T06:45:55;2.60;75.30
16347;DHT22;8283;48.504;13.734;2024-01-15T06:48:15;2.60;75.30
16347;DHT22;8283;48.504;13.734;2024-01-15T06:50:35;2.60;75.30
16347;DHT22;8283;48.504;13.734;2024-01-15T06:52:55;2.60;75.30
16347;DHT22;8283;48.504;13.734;2024-01-15T06:55:14;2.60;75.30
16347;DHT22;8283;48.504;13.734;2024-01-15T06:57:33;2.60;75.30
16347;DHT22;8283;48.504;13.734;2024-01-15T06:59:52;2.60;75.20
16347;DHT22;8283;48.504;13.734;2024-01-15T07:02:12;2.60;75.20
16347;DHT22;8283;48.504;13.734;2024-01-15T07:04:31;2.60;75.20
16347;DHT22;8283;48.504;13.734;2024-01-15T07:06:51;2.60;75.20
16347;DHT22;8283;48.504;13.734;2024-01-15T07:09:10;2.70;75.40
16347;DHT22;8283;48.504;13.734;2024-01-15T07:11:30;2.70;75.40
16347;DHT22;8283;48.504;13.734;2024-01-15T07:13:49;2.70;75.40
16347;DHT22;8283;48.504;13.734;2024-01-15T07:16:08;2.70;75.40
16347;DHT22;8283;48.504;13.734;2024-01-15T07:18:27;2.70;75.40
16347;DHT22;8283;48.504;13.734;2024-01-15T07:20:46;2.70;75.40
16347;DHT22;8283;48.504;13.734;2024-01-15T07:23:06;2.70;75.30
16347;DHT22;8283;48.504;13.734;2024-01-15T07:25:26;2.70;75.20
16347;DHT22;8283;48.504;13.734;2024-01-15T07:27:45;2.80;75.30
16347;DHT22;8283;48.504;13.734;2024-01-15T07:30:06;2.80;75.30
16347;DHT22;8283;48.504;13.734;2024-01-15T07:32:26;2.80;75.30
16347;DHT22;8283;48.504;13.734;2024-01-15T07:34:45;2.80;75.40
16347;DHT22;8283;48.504;13.734;2024-01-15T07:37:04;2.80;75.40
16347;DHT22;8283;48.504;13.734;2024-01-15T07:39:24;2.80;75.40
16347;DHT22;8283;48.504;13.734;2024-01-15T07:41:44;2.90;75.40
16347;DHT22;8283;48.504;13.734;2024-01-15T07:44:04;2.90;75.40
16347;DHT22;8283;48.504;13.734;2024-01-15T07:46:23;2.90;75.30
16347;DHT22;8283;48.504;13.734;2024-01-15T07:48:44;2.90;75.30
16347;DHT22;8283;48.504;13.734;2024-01-15T07:51:03;2.90;75.30
16347;DHT22;8283;48.504;13.734;2024-01-15T07:53:22;2.90;75.10
16347;DHT22;8283;48.504;13.734;2024-01-15T07:55:42;2.90;75.40
16347;DHT22;8283;48.504;13.734;2024-01-15T07:58:01;2.90;75.50
16347;DHT22;8283;48.504;13.734;2024-01-15T08:00:21;2.90;75.60
16347;DHT22;8283;48.504;13.734;2024-01-15T08:02:40;2.80;75.60
16347;DHT22;8283;48.504;13.734;2024-01-15T08:04:59;2.90;75.70
16347;DHT22;8283;48.504;13.734;2024-01-15T08:07:19;2.80;75.70
16347;DHT22;8283;48.504;13.734;2024-01-15T08:09:39;2.80;75.80
16347;DHT22;8283;48.504;13.734;2024-01-15T08:11:58;2.80;75.80
16347;DHT22;8283;48.504;13.734;2024-01-15T08:14:18;2.90;75.80
16347;DHT22;8283;48.504;13.734;2024-01-15T08:16:37;2.80;75.80
16347;DHT22;8283;48.504;13.734;2024-01-15T08:18:57;2.80;75.80
16347;DHT22;8283;48.504;13.734;2024-01-15T08:21:17;2.80;75.90
16347;DHT22;8283;48.504;13.734;2024-01-15T08:23:37;2.80;76.00
16347;DHT22;8283;48.504;13.734;2024-01-15T08:25:56;2.80;76.10
16347;DHT22;8283;48.504;13.734;2024-01-15T08:28:16;2.80;76.80
16347;DHT22;8283;48.504;13.734;2024-01-15T08:30:35;2.90;76.10
16347;DHT22;8283;48.504;13.734;2024-01-15T08:32:55;2.90;76.10
16347;DHT22;8283;48.504;13.734;2024-01-15T08:35:14;2.90;76.10
16347;DHT22;8283;48.504;13.734;2024-01-15T08:37:33;2.90;76.10
16347;DHT22;8283;48.504;13.734;2024-01-15T08:39:52;3.00;76.20
16347;DHT22;8283;48.504;13.734;2024-01-15T08:42:13;3.00;76.10
16347;DHT22;8283;48.504;13.734;2024-01-15T08:44:32;3.00;76.10
16347;DHT22;8283;48.504;13.734;2024-01-15T08:46:51;3.00;76.10
16347;DHT22;8283;48.504;13.734;2024-01-15T08:49:11;4.00;76.70
16347;DHT22;8283;48.504;13.734;2024-01-15T08:51:30;3.10;76.10
16347;DHT22;8283;48.504;13.734;2024-01-15T08:53:50;3.10;76.00
16347;DHT22;8283;48.504;13.734;2024-01-15T08:56:09;3.20;76.10
16347;DHT22;8283;48.504;13.734;2024-01-15T08:58:28;3.20;76.00
16347;DHT22;8283;48.504;13.734;2024-01-15T09:00:48;3.30;76.00
16347;DHT22;8283;48.504;13.734;2024-01-15T09:03:07;3.30;76.00
16347;DHT22;8283;48.504;13.734;2024-01-15T09:05:29;3.30;76.00
16347;DHT22;8283;48.504;13.734;2024-01-15T09:07:49;3.30;76.30
16347;DHT22;8283;48.504;13.734;2024-01-15T09:10:11;3.40;76.00
16347;DHT22;8283;48.504;13.734;2024-01-15T09:12:30;3.40;76.00
16347;DHT22;8283;48.504;13.734;2024-01-15T09:14:49;3.40;75.90
16347;DHT22;8283;48.504;13.734;2024-01-15T09:17:10;3.50;75.90
16347;DHT22;8283;48.504;13.734;2024-01-15T09:19:29;3.50;75.70
16347;DHT22;8283;48.504;13.734;2024-01-15T09:21:48;3.50;75.60
16347;DHT22;8283;48.504;13.734;2024-01-15T09:24:08;3.50;75.60
16347;DHT22;8283;48.504;13.734;2024-01-15T09:26:27;3.60;75.60
16347;DHT22;8283;48.504;13.734;2024-01-15T09:28:47;3.60;75.70
16347;DHT22;8283;48.504;13.734;2024-01-15T09:31:07;3.70;75.50
16347;DHT22;8283;48.504;13.734;2024-01-15T09:33:26;3.70;75.00
16347;DHT22;8283;48.504;13.734;2024-01-15T09:35:46;3.70;74.70
16347;DHT22;8283;48.504;13.734;2024-01-15T09:38:05;3.70;75.20
16347;DHT22;8283;48.504;13.734;2024-01-15T09:40:28;3.80;74.80
16347;DHT22;8283;48.504;13.734;2024-01-15T09:42:50;3.80;74.30
16347;DHT22;8283;48.504;13.734;2024-01-15T09:45:11;3.90;75.00
16347;DHT22;8283;48.504;13.734;2024-01-15T09:47:30;3.90;75.20
16347;DHT22;8283;48.504;13.734;2024-01-15T09:49:49;4.00;75.60
16347;DHT22;8283;48.504;13.734;2024-01-15T09:52:10;4.00;75.60
16347;DHT22;8283;48.504;13.734;2024-01-15T09:54:30;4.10;75.60
16347;DHT22;8283;48.504;13.734;2024-01-15T09:56:50;4.20;75.80
16347;DHT22;8283;48.504;13.734;2024-01-15T09:59:09;4.30;75.80
16347;DHT22;8283;48.504;13.734;2024-01-15T10:01:31;4.40;75.50
16347;DHT22;8283;48.504;13.734;2024-01-15T10:03:50;4.40;74.90
16347;DHT22;8283;48.504;13.734;2024-01-15T10:06:11;4.50;74.40
16347;DHT22;8283;48.504;13.734;2024-01-15T10:08:36;4.50;73.60
16347;DHT22;8283;48.504;13.734;2024-01-15T10:10:56;4.60;74.70
16347;DHT22;8283;48.504;13.734;2024-01-15T10:13:15;4.60;75.00
16347;DHT22;8283;48.504;13.734;2024-01-15T10:15:35;4.60;75.10
16347;DHT22;8283;48.504;13.734;2024-01-15T10:17:56;4.70;75.40
16347;DHT22;8283;48.504;13.734;2024-01-15T10:20:16;4.80;75.30
16347;DHT22;8283;48.504;13.734;2024-01-15T10:22:35;4.80;75.40
16347;DHT22;8283;48.504;13.734;2024-01-15T10:24:58;4.90;75.50
16347;DHT22;8283;48.504;13.734;2024-01-15T10:27:18;5.00;74.70
16347;DHT22;8283;48.504;13.734;2024-01-15T10:29:37;5.10;74.60
16347;DHT22;8283;48.504;13.734;2024-01-15T10:31:56;5.20;74.90
16347;DHT22;8283;48.504;13.734;2024-01-15T10:34:15;5.20;75.10
16347;DHT22;8283;48.504;13.734;2024-01-15T10:36:35;5.30;75.40
16347;DHT22;8283;48.504;13.734;2024-01-15T10:38:57;5.40;75.20
16347;DHT22;8283;48.504;13.734;2024-01-15T10:41:16;5.50;74.20
16347;DHT22;8283;48.504;13.734;2024-01-15T10:43:36;5.60;75.10
16347;DHT22;8283;48.504;13.734;2024-01-15T10:45:56;5.70;75.60
16347;DHT22;8283;48.504;13.734;2024-01-15T10:48:19;5.90;75.20
16347;DHT22;8283;48.504;13.734;2024-01-15T10:50:42;5.90;73.80
16347;DHT22;8283;48.504;13.734;2024-01-15T10:53:03;6.10;73.80
16347;DHT22;8283;48.504;13.734;2024-01-15T10:55:23;6.10;74.30
16347;DHT22;8283;48.504;13.734;2024-01-15T10:57:44;6.20;70.90
16347;DHT22;8283;48.504;13.734;2024-01-15T11:00:06;6.20;73.40
16347;DHT22;8283;48.504;13.734;2024-01-15T11:02:26;6.20;73.50
16347;DHT22;8283;48.504;13.734;2024-01-15T11:04:45;6.20;73.60
16347;DHT22;8283;48.504;13.734;2024-01-15T11:07:05;6.10;73.40
16347;DHT22;8283;48.504;13.734;2024-01-15T11:09:25;6.10;72.70
16347;DHT22;8283;48.504;13.734;2024-01-15T11:11:46;6.00;71.60
16347;DHT22;8283;48.504;13.734;2024-01-15T11:14:08;6.00;72.70
16347;DHT22;8283;48.504;13.734;2024-01-15T11:16:54;6.00;73.20
16347;DHT22;8283;48.504;13.734;2024-01-15T11:19:15;6.00;72.70
16347;DHT22;8283;48.504;13.734;2024-01-15T11:21:42;5.90;73.50
16347;DHT22;8283;48.504;13.734;2024-01-15T11:24:01;5.90;72.40
16347;DHT22;8283;48.504;13.734;2024-01-15T11:26:34;5.90;73.40
16347;DHT22;8283;48.504;13.734;2024-01-15T11:28:58;5.90;73.00
16347;DHT22;8283;48.504;13.734;2024-01-15T11:31:19;5.90;73.30
16347;DHT22;8283;48.504;13.734;2024-01-15T11:33:49;5.90;73.10
16347;DHT22;8283;48.504;13.734;2024-01-15T11:36:09;5.90;72.30
16347;DHT22;8283;48.504;13.734;2024-01-15T11:38:29;5.80;72.90
16347;DHT22;8283;48.504;13.734;2024-01-15T11:40:50;6.50;73.70
16347;DHT22;8283;48.504;13.734;2024-01-15T11:43:09;5.80;73.20
16347;DHT22;8283;48.504;13.734;2024-01-15T11:45:30;5.90;73.40
16347;DHT22;8283;48.504;13.734;2024-01-15T11:48:09;5.90;73.50
16347;DHT22;8283;48.504;13.734;2024-01-15T11:50:33;5.90;73.00
16347;DHT22;8283;48.504;13.734;2024-01-15T11:53:40;5.90;73.50
16347;DHT22;8283;48.504;13.734;2024-01-15T11:55:58;5.90;72.50
16347;DHT22;8283;48.504;13.734;2024-01-15T11:58:19;5.80;73.40
16347;DHT22;8283;48.504;13.734;2024-01-15T12:00:43;5.90;72.70
16347;DHT22;8283;48.504;13.734;2024-01-15T12:03:05;6.70;73.60
16347;DHT22;8283;48.504;13.734;2024-01-15T12:05:24;5.90;73.20
16347;DHT22;8283;48.504;13.734;2024-01-15T12:07:45;5.90;73.00
16347;DHT22;8283;48.504;13.734;2024-01-15T12:10:08;5.80;73.20
16347;DHT22;8283;48.504;13.734;2024-01-15T12:15:03;5.80;72.70
16347;DHT22;8283;48.504;13.734;2024-01-15T12:17:22;5.80;73.40
16347;DHT22;8283;48.504;13.734;2024-01-15T12:19:43;5.80;73.50
16347;DHT22;8283;48.504;13.734;2024-01-15T12:22:02;5.80;73.20
16347;DHT22;8283;48.504;13.734;2024-01-15T12:24:21;5.80;73.20
16347;DHT22;8283;48.504;13.734;2024-01-15T12:26:41;5.80;73.50
16347;DHT22;8283;48.504;13.734;2024-01-15T12:29:06;5.80;73.20
16347;DHT22;8283;48.504;13.734;2024-01-15T12:31:26;5.80;72.70
16347;DHT22;8283;48.504;13.734;2024-01-15T12:33:45;5.70;72.90
16347;DHT22;8283;48.504;13.734;2024-01-15T12:36:05;5.70;73.00
16347;DHT22;8283;48.504;13.734;2024-01-15T12:38:24;5.60;73.00
16347;DHT22;8283;48.504;13.734;2024-01-15T12:40:44;5.60;73.00
16347;DHT22;8283;48.504;13.734;2024-01-15T12:43:06;5.60;72.60
16347;DHT22;8283;48.504;13.734;2024-01-15T12:45:26;5.50;72.60
16347;DHT22;8283;48.504;13.734;2024-01-15T12:47:46;5.50;73.40
16347;DHT22;8283;48.504;13.734;2024-01-15T12:50:09;5.40;73.00
16347;DHT22;8283;48.504;13.734;2024-01-15T12:52:29;5.40;73.00
16347;DHT22;8283;48.504;13.734;2024-01-15T12:54:49;5.40;73.10
16347;DHT22;8283;48.504;13.734;2024-01-15T12:57:09;5.40;73.20
16347;DHT22;8283;48.504;13.734;2024-01-15T12:59:29;5.40;73.20
16347;DHT22;8283;48.504;13.734;2024-01-15T13:01:49;5.30;73.20
16347;DHT22;8283;48.504;13.734;2024-01-15T13:04:08;5.30;73.30
16347;DHT22;8283;48.504;13.734;2024-01-15T13:06:28;5.30;73.30
16347;DHT22;8283;48.504;13.734;2024-01-15T13:08:47;5.30;73.40
16347;DHT22;8283;48.504;13.734;2024-01-15T13:11:07;5.30;73.50
16347;DHT22;8283;48.504;13.734;2024-01-15T13:13:26;5.20;73.50
16347;DHT22;8283;48.504;13.734;2024-01-15T13:15:46;5.20;73.50
16347;DHT22;8283;48.504;13.734;2024-01-15T13:18:06;5.20;73.60
16347;DHT22;8283;48.504;13.734;2024-01-15T13:20:25;5.20;73.70
16347;DHT22;8283;48.504;13.734;2024-01-15T13:22:44;5.20;73.80
16347;DHT22;8283;48.504;13.734;2024-01-15T13:25:05;5.20;73.90
16347;DHT22;8283;48.504;13.734;2024-01-15T13:27:26;5.20;73.90
16347;DHT22;8283;48.504;13.734;2024-01-15T13:29:46;5.20;73.50
16347;DHT22;8283;48.504;13.734;2024-01-15T13:32:05;5.20;73.70
16347;DHT22;8283;48.504;13.734;2024-01-15T13:34:25;5.20;73.70
16347;DHT22;8283;48.504;13.734;2024-01-15T13:36:45;5.20;73.30
16347;DHT22;8283;48.504;13.734;2024-01-15T13:39:04;5.20;73.50
16347;DHT22;8283;48.504;13.734;2024-01-15T13:41:27;5.20;73.60
16347;DHT22;8283;48.504;13.734;2024-01-15T13:43:49;5.20;73.70
16347;DHT22;8283;48.504;13.734;2024-01-15T13:46:09;5.20;73.70
16347;DHT22;8283;48.504;13.734;2024-01-15T13:48:29;5.20;73.80
16347;DHT22;8283;48.504;13.734;2024-01-15T13:50:48;5.20;73.90
16347;DHT22;8283;48.504;13.734;2024-01-15T13:53:10;5.20;74.10
16347;DHT22;8283;48.504;13.734;2024-01-15T13:55:30;5.20;74.10
16347;DHT22;8283;48.504;13.734;2024-01-15T13:57:49;5.20;74.10
16347;DHT22;8283;48.504;13.734;2024-01-15T14:00:09;5.20;74.20
16347;DHT22;8283;48.504;13.734;2024-01-15T14:02:30;5.20;74.10
16347;DHT22;8283;48.504;13.734;2024-01-15T14:04:50;5.20;74.10
16347;DHT22;8283;48.504;13.734;2024-01-15T14:07:09;5.20;74.10
16347;DHT22;8283;48.504;13.734;2024-01-15T14:09:28;5.30;74.20
16347;DHT22;8283;48.504;13.734;2024-01-15T14:11:48;5.30;74.10
16347;DHT22;8283;48.504;13.734;2024-01-15T14:14:08;5.30;74.00
16347;DHT22;8283;48.504;13.734;2024-01-15T14:16:28;5.30;74.10
16347;DHT22;8283;48.504;13.734;2024-01-15T14:18:47;5.30;74.10
16347;DHT22;8283;48.504;13.734;2024-01-15T14:21:07;5.30;74.10
16347;DHT22;8283;48.504;13.734;2024-01-15T14:23:26;5.30;74.10
16347;DHT22;8283;48.504;13.734;2024-01-15T14:25:46;5.30;73.90
16347;DHT22;8283;48.504;13.734;2024-01-15T14:28:05;5.30;73.90
16347;DHT22;8283;48.504;13.734;2024-01-15T14:30:25;5.30;73.90
16347;DHT22;8283;48.504;13.734;2024-01-15T14:32:45;5.30;73.80
16347;DHT22;8283;48.504;13.734;2024-01-15T14:35:05;5.40;73.80
16347;DHT22;8283;48.504;13.734;2024-01-15T14:37:25;5.30;73.50
16347;DHT22;8283;48.504;13.734;2024-01-15T14:39:44;5.30;73.30
16347;DHT22;8283;48.504;13.734;2024-01-15T14:42:03;5.30;73.30
16347;DHT22;8283;48.504;13.734;2024-01-15T14:44:23;5.30;73.40
16347;DHT22;8283;48.504;13.734;2024-01-15T14:46:43;5.20;73.40
16347;DHT22;8283;48.504;13.734;2024-01-15T14:49:02;5.20;73.50
16347;DHT22;8283;48.504;13.734;2024-01-15T14:51:22;5.20;73.50
16347;DHT22;8283;48.504;13.734;2024-01-15T14:53:41;5.20;73.50
16347;DHT22;8283;48.504;13.734;2024-01-15T14:56:00;5.20;73.60
16347;DHT22;8283;48.504;13.734;2024-01-15T14:58:21;5.20;73.60
16347;DHT22;8283;48.504;13.734;2024-01-15T15:00:41;5.10;73.60